sensor_id;sensor_type;location;lat;lon;timestamp;pressure;altitude;pressure_sealevel;temperature;humidity
23131;BME280;11734;51.046;13.778;2022-08-21T00:00:53;73072.47;;;18.58;100.00
23131;BME280;11734;51.046;13.778;2022-08-21T00:03:20;73269.44;;;18.46;100.00
23131;BME280;11734;51.046;13.778;2022-08-21T00:05:49;73532.41;;;18.46;100.00
23131;BME280;11734;51.046;13.778;2022-08-21T00:08:18;73862.13;;;18.49;100.00
23131;BME280;11734;51.046;13.778;2022-08-21T00:10:47;74189.44;;;18.49;100.00
23131;BME280;11734;51.046;13.778;2022-08-21T00:13:15;74318.59;;;18.50;100.00
23131;BME280;11734;51.046;13.778;2022-08-21T00:15:46;74467.38;;;18.49;100.00
23131;BME280;11734;51.046;13.778;2022-08-21T00:18:14;74668.63;;;18.51;100.00
23131;BME280;11734;51.046;13.778;2022-08-21T00:20:43;74855.50;;;18.51;100.00
23131;BME280;11734;51.046;13.778;2022-08-21T00:23:11;74901.84;;;18.49;100.00
23131;BME280;11734;51.046;13.778;2022-08-21T00:25:41;75129.38;;;18.51;100.00
23131;BME280;11734;51.046;13.778;2022-08-21T00:28:09;75221.09;;;18.52;100.00
23131;BME280;11734;51.046;13.778;2022-08-21T00:30:38;75241.88;;;18.51;100.00
23131;BME280;11734;51.046;13.778;2022-08-21T00:33:06;74980.72;;;18.37;100.00
23131;BME280;11734;51.046;13.778;2022-08-21T00:35:37;75000.28;;;18.35;100.00
23131;BME280;11734;51.046;13.778;2022-08-21T00:38:06;75112.56;;;18.37;100.00
23131;BME280;11734;51.046;13.778;2022-08-21T00:40:49;75310.41;;;18.42;100.00
23131;BME280;11734;51.046;13.778;2022-08-21T00:43:22;75355.75;;;18.44;100.00
23131;BME280;11734;51.046;13.778;2022-08-21T00:45:51;75352.03;;;18.41;100.00
23131;BME280;11734;51.046;13.778;2022-08-21T00:48:21;75467.00;;;18.43;100.00
23131;BME280;11734;51.046;13.778;2022-08-21T00:51:11;75610.69;;;18.46;100.00
23131;BME280;11734;51.046;13.778;2022-08-21T00:53:43;75507.38;;;18.41;100.00
23131;BME280;11734;51.046;13.778;2022-08-21T00:56:18;75560.97;;;18.41;100.00
23131;BME280;11734;51.046;13.778;2022-08-21T00:58:46;75771.63;;;18.44;100.00
23131;BME280;11734;51.046;13.778;2022-08-21T01:01:21;75823.31;;;18.43;100.00
23131;BME280;11734;51.046;13.778;2022-08-21T01:03:49;76048.03;;;18.47;100.00
23131;BME280;11734;51.046;13.778;2022-08-21T01:06:17;76178.06;;;18.46;100.00
23131;BME280;11734;51.046;13.778;2022-08-21T01:08:45;76210.19;;;18.46;100.00
23131;BME280;11734;51.046;13.778;2022-08-21T01:11:14;76199.16;;;18.41;100.00
23131;BME280;11734;51.046;13.778;2022-08-21T01:13:44;76367.81;;;18.43;100.00
23131;BME280;11734;51.046;13.778;2022-08-21T01:16:17;76586.28;;;18.42;100.00
23131;BME280;11734;51.046;13.778;2022-08-21T01:18:46;76739.94;;;18.38;100.00
23131;BME280;11734;51.046;13.778;2022-08-21T01:21:19;76930.19;;;18.38;100.00
23131;BME280;11734;51.046;13.778;2022-08-21T01:23:49;77236.97;;;18.40;100.00
23131;BME280;11734;51.046;13.778;2022-08-21T01:26:21;77352.31;;;18.37;100.00
23131;BME280;11734;51.046;13.778;2022-08-21T01:29:12;77234.66;;;18.33;100.00
23131;BME280;11734;51.046;13.778;2022-08-21T01:31:42;77200.19;;;18.27;100.00
23131;BME280;11734;51.046;13.778;2022-08-21T01:34:10;77216.63;;;18.21;100.00
23131;BME280;11734;51.046;13.778;2022-08-21T01:36:38;77263.59;;;18.20;100.00
23131;BME280;11734;51.046;13.778;2022-08-21T01:39:06;77385.44;;;18.21;100.00
23131;BME280;11734;51.046;13.778;2022-08-21T01:41:34;77318.69;;;18.17;100.00
23131;BME280;11734;51.046;13.778;2022-08-21T01:44:01;77152.31;;;18.11;100.00
23131;BME280;11734;51.046;13.778;2022-08-21T01:46:29;77095.56;;;18.08;100.00
23131;BME280;11734;51.046;13.778;2022-08-21T01:48:57;77128.72;;;18.03;100.00
23131;BME280;11734;51.046;13.778;2022-08-21T01:51:24;77216.59;;;18.00;100.00
23131;BME280;11734;51.046;13.778;2022-08-21T01:53:52;77184.69;;;17.96;100.00
23131;BME280;11734;51.046;13.778;2022-08-21T01:56:20;77259.16;;;17.94;100.00
23131;BME280;11734;51.046;13.778;2022-08-21T01:58:48;77528.03;;;17.99;100.00
23131;BME280;11734;51.046;13.778;2022-08-21T02:01:16;77508.13;;;17.96;100.00
23131;BME280;11734;51.046;13.778;2022-08-21T02:03:44;77474.69;;;17.95;100.00
23131;BME280;11734;51.046;13.778;2022-08-21T02:06:15;77119.78;;;17.85;100.00
23131;BME280;11734;51.046;13.778;2022-08-21T02:08:46;77054.22;;;17.84;100.00
23131;BME280;11734;51.046;13.778;2022-08-21T02:11:13;76905.84;;;17.81;100.00
23131;BME280;11734;51.046;13.778;2022-08-21T02:13:41;76697.94;;;17.77;100.00
23131;BME280;11734;51.046;13.778;2022-08-21T02:16:09;76490.31;;;17.70;100.00
23131;BME280;11734;51.046;13.778;2022-08-21T02:18:37;76503.56;;;17.72;100.00
23131;BME280;11734;51.046;13.778;2022-08-21T02:21:05;76282.19;;;17.70;100.00
23131;BME280;11734;51.046;13.778;2022-08-21T02:23:33;76288.06;;;17.73;100.00
23131;BME280;11734;51.046;13.778;2022-08-21T02:26:03;76328.38;;;17.79;100.00
23131;BME280;11734;51.046;13.778;2022-08-21T02:28:32;76443.94;;;17.82;100.00
23131;BME280;11734;51.046;13.778;2022-08-21T02:30:59;76352.31;;;17.81;100.00
23131;BME280;11734;51.046;13.778;2022-08-21T02:33:29;76448.19;;;17.79;100.00
23131;BME280;11734;51.046;13.778;2022-08-21T02:35:57;76524.13;;;17.84;100.00
23131;BME280;11734;51.046;13.778;2022-08-21T02:38:27;76570.28;;;17.84;100.00
23131;BME280;11734;51.046;13.778;2022-08-21T02:40:56;76543.00;;;17.82;100.00
23131;BME280;11734;51.046;13.778;2022-08-21T02:43:25;76505.47;;;17.73;100.00
23131;BME280;11734;51.046;13.778;2022-08-21T02:45:55;76614.94;;;17.77;100.00
23131;BME280;11734;51.046;13.778;2022-08-21T02:48:25;76586.53;;;17.72;100.00
23131;BME280;11734;51.046;13.778;2022-08-21T02:50:56;76755.81;;;17.72;100.00
23131;BME280;11734;51.046;13.778;2022-08-21T02:53:25;76939.13;;;17.73;100.00
23131;BME280;11734;51.046;13.778;2022-08-21T02:55:53;77136.19;;;17.68;100.00
23131;BME280;11734;51.046;13.778;2022-08-21T02:58:25;77418.84;;;17.76;100.00
23131;BME280;11734;51.046;13.778;2022-08-21T03:00:53;77454.53;;;17.72;100.00
23131;BME280;11734;51.046;13.778;2022-08-21T03:03:21;77593.75;;;17.72;100.00
23131;BME280;11734;51.046;13.778;2022-08-21T03:05:50;77756.44;;;17.72;100.00
23131;BME280;11734;51.046;13.778;2022-08-21T03:08:18;77868.78;;;17.74;100.00
23131;BME280;11734;51.046;13.778;2022-08-21T03:10:52;77975.16;;;17.75;100.00
23131;BME280;11734;51.046;13.778;2022-08-21T03:13:20;78041.56;;;17.73;100.00
23131;BME280;11734;51.046;13.778;2022-08-21T03:15:49;77697.84;;;17.66;100.00
23131;BME280;11734;51.046;13.778;2022-08-21T03:18:17;77627.03;;;17.63;100.00
23131;BME280;11734;51.046;13.778;2022-08-21T03:20:45;77518.06;;;17.61;100.00
23131;BME280;11734;51.046;13.778;2022-08-21T03:23:14;77629.50;;;17.67;100.00
23131;BME280;11734;51.046;13.778;2022-08-21T03:25:46;77685.72;;;17.67;100.00
23131;BME280;11734;51.046;13.778;2022-08-21T03:28:16;77662.91;;;17.68;100.00
23131;BME280;11734;51.046;13.778;2022-08-21T03:30:46;77544.06;;;17.63;100.00
23131;BME280;11734;51.046;13.778;2022-08-21T03:33:14;77744.53;;;17.69;100.00
23131;BME280;11734;51.046;13.778;2022-08-21T03:35:48;77804.50;;;17.74;100.00
23131;BME280;11734;51.046;13.778;2022-08-21T03:38:18;77771.00;;;17.75;100.00
23131;BME280;11734;51.046;13.778;2022-08-21T03:40:52;77813.84;;;17.75;100.00
23131;BME280;11734;51.046;13.778;2022-08-21T03:43:20;77937.00;;;17.75;100.00
23131;BME280;11734;51.046;13.778;2022-08-21T03:45:48;77977.09;;;17.77;100.00
23131;BME280;11734;51.046;13.778;2022-08-21T03:48:19;78025.28;;;17.77;100.00
23131;BME280;11734;51.046;13.778;2022-08-21T03:50:46;77868.88;;;17.72;100.00
23131;BME280;11734;51.046;13.778;2022-08-21T03:53:16;78005.25;;;17.76;100.00
23131;BME280;11734;51.046;13.778;2022-08-21T03:55:49;78165.94;;;17.76;100.00
23131;BME280;11734;51.046;13.778;2022-08-21T03:58:20;78165.09;;;17.79;100.00
23131;BME280;11734;51.046;13.778;2022-08-21T04:00:51;77895.41;;;17.63;100.00
23131;BME280;11734;51.046;13.778;2022-08-21T04:03:19;77904.44;;;17.56;100.00
23131;BME280;11734;51.046;13.778;2022-08-21T04:05:47;78517.88;;;17.64;100.00
23131;BME280;11734;51.046;13.778;2022-08-21T04:08:15;79139.78;;;17.67;100.00
23131;BME280;11734;51.046;13.778;2022-08-21T04:10:48;78861.44;;;17.40;100.00
23131;BME280;11734;51.046;13.778;2022-08-21T04:13:16;79341.22;;;17.44;100.00
23131;BME280;11734;51.046;13.778;2022-08-21T04:15:44;80044.09;;;17.48;100.00
23131;BME280;11734;51.046;13.778;2022-08-21T04:18:11;80839.63;;;17.52;100.00
23131;BME280;11734;51.046;13.778;2022-08-21T04:20:39;81868.00;;;17.57;100.00
23131;BME280;11734;51.046;13.778;2022-08-21T04:23:11;82511.97;;;17.58;100.00
23131;BME280;11734;51.046;13.778;2022-08-21T04:25:51;83323.13;;;17.63;100.00
23131;BME280;11734;51.046;13.778;2022-08-21T04:28:19;83566.47;;;17.62;100.00
23131;BME280;11734;51.046;13.778;2022-08-21T04:30:50;83932.69;;;17.65;100.00
23131;BME280;11734;51.046;13.778;2022-08-21T04:33:19;84145.28;;;17.66;100.00
23131;BME280;11734;51.046;13.778;2022-08-21T04:35:48;84071.25;;;17.61;100.00
23131;BME280;11734;51.046;13.778;2022-08-21T04:38:16;84441.72;;;17.67;100.00
23131;BME280;11734;51.046;13.778;2022-08-21T04:40:43;84820.09;;;17.69;100.00
23131;BME280;11734;51.046;13.778;2022-08-21T04:43:12;84746.81;;;17.66;100.00
23131;BME280;11734;51.046;13.778;2022-08-21T04:45:42;84519.03;;;17.59;100.00
23131;BME280;11734;51.046;13.778;2022-08-21T04:48:11;85123.28;;;17.69;100.00
23131;BME280;11734;51.046;13.778;2022-08-21T04:53:36;84919.13;;;17.65;100.00
23131;BME280;11734;51.046;13.778;2022-08-21T04:56:33;84506.78;;;17.56;100.00
23131;BME280;11734;51.046;13.778;2022-08-21T04:59:01;85025.97;;;17.68;100.00
23131;BME280;11734;51.046;13.778;2022-08-21T05:01:34;85624.38;;;17.78;100.00
23131;BME280;11734;51.046;13.778;2022-08-21T05:04:04;85907.78;;;17.81;100.00
23131;BME280;11734;51.046;13.778;2022-08-21T05:06:36;86353.91;;;17.87;100.00
23131;BME280;11734;51.046;13.778;2022-08-21T05:09:05;86671.81;;;17.92;100.00
23131;BME280;11734;51.046;13.778;2022-08-21T05:11:33;87099.38;;;17.98;100.00
23131;BME280;11734;51.046;13.778;2022-08-21T05:14:02;87426.25;;;18.03;100.00
23131;BME280;11734;51.046;13.778;2022-08-21T05:16:29;87557.06;;;18.08;100.00
23131;BME280;11734;51.046;13.778;2022-08-21T05:19:07;87576.81;;;18.10;100.00
23131;BME280;11734;51.046;13.778;2022-08-21T05:21:38;87137.38;;;18.02;100.00
23131;BME280;11734;51.046;13.778;2022-08-21T05:24:05;86968.88;;;18.02;100.00
23131;BME280;11734;51.046;13.778;2022-08-21T05:26:33;87379.44;;;18.11;100.00
23131;BME280;11734;51.046;13.778;2022-08-21T05:29:14;87439.69;;;18.16;100.00
23131;BME280;11734;51.046;13.778;2022-08-21T05:31:43;86807.94;;;18.12;100.00
23131;BME280;11734;51.046;13.778;2022-08-21T05:34:12;86561.19;;;18.16;100.00
23131;BME280;11734;51.046;13.778;2022-08-21T05:36:42;86154.66;;;18.21;100.00
23131;BME280;11734;51.046;13.778;2022-08-21T05:39:10;86019.56;;;18.28;100.00
23131;BME280;11734;51.046;13.778;2022-08-21T05:41:37;86167.94;;;18.36;100.00
23131;BME280;11734;51.046;13.778;2022-08-21T05:44:05;86038.59;;;18.40;100.00
23131;BME280;11734;51.046;13.778;2022-08-21T05:46:37;86126.47;;;18.47;100.00
23131;BME280;11734;51.046;13.778;2022-08-21T05:49:04;86396.25;;;18.51;100.00
23131;BME280;11734;51.046;13.778;2022-08-21T05:51:32;85619.47;;;18.40;100.00
23131;BME280;11734;51.046;13.778;2022-08-21T05:54:00;85558.50;;;18.42;100.00
23131;BME280;11734;51.046;13.778;2022-08-21T05:56:27;85575.63;;;18.47;100.00
23131;BME280;11734;51.046;13.778;2022-08-21T05:58:55;85521.34;;;18.48;100.00
23131;BME280;11734;51.046;13.778;2022-08-21T06:01:22;84943.22;;;18.40;100.00
23131;BME280;11734;51.046;13.778;2022-08-21T06:03:50;85088.78;;;18.48;100.00
23131;BME280;11734;51.046;13.778;2022-08-21T06:06:19;85026.69;;;18.54;100.00
23131;BME280;11734;51.046;13.778;2022-08-21T06:08:47;84796.00;;;18.60;100.00
23131;BME280;11734;51.046;13.778;2022-08-21T06:11:14;84833.50;;;18.69;100.00
23131;BME280;11734;51.046;13.778;2022-08-21T06:13:42;84357.31;;;18.71;100.00
23131;BME280;11734;51.046;13.778;2022-08-21T06:16:13;83695.00;;;18.70;100.00
23131;BME280;11734;51.046;13.778;2022-08-21T06:18:43;83251.88;;;18.72;100.00
23131;BME280;11734;51.046;13.778;2022-08-21T06:21:11;82940.41;;;18.76;100.00
23131;BME280;11734;51.046;13.778;2022-08-21T06:23:40;82815.00;;;18.82;100.00
23131;BME280;11734;51.046;13.778;2022-08-21T06:26:10;82596.13;;;18.83;100.00
23131;BME280;11734;51.046;13.778;2022-08-21T06:28:38;82199.47;;;18.54;100.00
23131;BME280;11734;51.046;13.778;2022-08-21T06:31:19;82050.13;;;18.77;100.00
23131;BME280;11734;51.046;13.778;2022-08-21T06:33:50;81394.91;;;18.65;100.00
23131;BME280;11734;51.046;13.778;2022-08-21T06:36:19;81090.25;;;18.74;100.00
23131;BME280;11734;51.046;13.778;2022-08-21T06:38:49;80529.25;;;18.74;100.00
23131;BME280;11734;51.046;13.778;2022-08-21T06:41:19;80058.16;;;18.79;100.00
23131;BME280;11734;51.046;13.778;2022-08-21T06:43:52;79393.22;;;18.81;100.00
23131;BME280;11734;51.046;13.778;2022-08-21T06:46:20;78638.91;;;18.73;100.00
23131;BME280;11734;51.046;13.778;2022-08-21T06:48:48;76941.25;;;18.64;100.00
23131;BME280;11734;51.046;13.778;2022-08-21T06:51:16;75789.47;;;18.63;100.00
23131;BME280;11734;51.046;13.778;2022-08-21T06:53:44;75373.13;;;18.66;100.00
23131;BME280;11734;51.046;13.778;2022-08-21T06:56:11;75155.91;;;18.68;100.00
23131;BME280;11734;51.046;13.778;2022-08-21T06:58:39;74518.03;;;18.64;100.00
23131;BME280;11734;51.046;13.778;2022-08-21T07:01:06;74368.53;;;18.77;100.00
23131;BME280;11734;51.046;13.778;2022-08-21T07:03:39;74141.56;;;18.82;100.00
23131;BME280;11734;51.046;13.778;2022-08-21T07:06:09;73682.81;;;18.82;100.00
23131;BME280;11734;51.046;13.778;2022-08-21T07:08:38;73266.38;;;18.81;100.00
23131;BME280;11734;51.046;13.778;2022-08-21T07:11:11;72841.72;;;18.82;100.00
23131;BME280;11734;51.046;13.778;2022-08-21T07:13:40;72722.78;;;18.90;100.00
23131;BME280;11734;51.046;13.778;2022-08-21T07:16:07;72704.31;;;18.88;100.00
23131;BME280;11734;51.046;13.778;2022-08-21T07:18:35;72648.38;;;18.91;100.00
23131;BME280;11734;51.046;13.778;2022-08-21T07:21:04;72682.44;;;19.01;100.00
23131;BME280;11734;51.046;13.778;2022-08-21T07:23:36;72301.78;;;19.08;100.00
23131;BME280;11734;51.046;13.778;2022-08-21T07:26:04;72037.16;;;19.08;100.00
23131;BME280;11734;51.046;13.778;2022-08-21T07:28:33;71910.06;;;19.07;100.00
23131;BME280;11734;51.046;13.778;2022-08-21T07:31:02;71967.81;;;19.34;100.00
23131;BME280;11734;51.046;13.778;2022-08-21T07:33:32;71865.97;;;19.29;100.00
23131;BME280;11734;51.046;13.778;2022-08-21T07:36:00;71812.72;;;19.27;100.00
23131;BME280;11734;51.046;13.778;2022-08-21T07:38:28;71786.47;;;19.46;100.00
23131;BME280;11734;51.046;13.778;2022-08-21T07:40:57;71714.69;;;19.46;100.00
23131;BME280;11734;51.046;13.778;2022-08-21T07:43:27;71682.56;;;19.33;100.00
23131;BME280;11734;51.046;13.778;2022-08-21T07:45:55;71714.69;;;19.42;100.00
23131;BME280;11734;51.046;13.778;2022-08-21T07:48:22;71717.34;;;19.51;100.00
23131;BME280;11734;51.046;13.778;2022-08-21T07:50:50;71747.41;;;19.56;100.00
23131;BME280;11734;51.046;13.778;2022-08-21T07:53:18;71624.41;;;19.54;100.00
23131;BME280;11734;51.046;13.778;2022-08-21T07:55:45;71598.25;;;19.45;100.00
23131;BME280;11734;51.046;13.778;2022-08-21T07:58:13;71538.66;;;19.01;100.00
23131;BME280;11734;51.046;13.778;2022-08-21T08:00:41;71610.75;;;19.51;100.00
23131;BME280;11734;51.046;13.778;2022-08-21T08:03:08;71680.91;;;19.70;100.00
23131;BME280;11734;51.046;13.778;2022-08-21T08:05:36;71579.13;;;19.56;100.00
23131;BME280;11734;51.046;13.778;2022-08-21T08:08:04;71541.63;;;19.52;100.00
23131;BME280;11734;51.046;13.778;2022-08-21T08:10:32;71560.06;;;19.58;100.00
23131;BME280;11734;51.046;13.778;2022-08-21T08:13:00;71605.91;;;19.61;100.00
23131;BME280;11734;51.046;13.778;2022-08-21T08:15:28;71558.28;;;19.57;100.00
23131;BME280;11734;51.046;13.778;2022-08-21T08:17:59;71582.00;;;19.68;100.00
23131;BME280;11734;51.046;13.778;2022-08-21T08:20:29;71539.88;;;19.85;100.00
23131;BME280;11734;51.046;13.778;2022-08-21T08:22:56;71588.28;;;20.05;100.00
23131;BME280;11734;51.046;13.778;2022-08-21T08:25:25;71559.75;;;19.56;100.00
23131;BME280;11734;51.046;13.778;2022-08-21T08:27:53;71599.09;;;19.96;100.00
23131;BME280;11734;51.046;13.778;2022-08-21T08:30:22;71569.28;;;19.98;100.00
23131;BME280;11734;51.046;13.778;2022-08-21T08:32:51;71571.34;;;20.02;100.00
23131;BME280;11734;51.046;13.778;2022-08-21T08:35:19;71609.34;;;20.16;100.00
23131;BME280;11734;51.046;13.778;2022-08-21T08:37:51;71601.50;;;20.33;100.00
23131;BME280;11734;51.046;13.778;2022-08-21T08:42:51;71571.56;;;20.09;100.00
23131;BME280;11734;51.046;13.778;2022-08-21T08:45:21;71561.38;;;20.14;100.00
23131;BME280;11734;51.046;13.778;2022-08-21T08:47:58;71620.84;;;20.38;100.00
23131;BME280;11734;51.046;13.778;2022-08-21T08:53:17;71606.53;;;20.35;100.00
23131;BME280;11734;51.046;13.778;2022-08-21T08:55:48;71630.63;;;20.44;100.00
23131;BME280;11734;51.046;13.778;2022-08-21T08:58:36;71639.09;;;20.62;100.00
23131;BME280;11734;51.046;13.778;2022-08-21T09:01:12;71629.19;;;20.70;100.00
23131;BME280;11734;51.046;13.778;2022-08-21T09:03:41;71603.41;;;20.50;100.00
23131;BME280;11734;51.046;13.778;2022-08-21T09:23:24;71629.50;;;20.68;100.00
23131;BME280;11734;51.046;13.778;2022-08-21T09:26:08;71716.50;;;20.83;100.00
23131;BME280;11734;51.046;13.778;2022-08-21T09:28:39;71657.44;;;20.78;100.00
23131;BME280;11734;51.046;13.778;2022-08-21T09:31:22;71750.94;;;21.07;100.00
23131;BME280;11734;51.046;13.778;2022-08-21T09:33:50;71734.56;;;21.00;100.00
23131;BME280;11734;51.046;13.778;2022-08-21T09:39:37;71776.56;;;21.11;100.00
23131;BME280;11734;51.046;13.778;2022-08-21T09:42:10;71724.69;;;21.03;100.00
23131;BME280;11734;51.046;13.778;2022-08-21T09:44:41;71717.66;;;20.88;100.00
23131;BME280;11734;51.046;13.778;2022-08-21T09:47:12;71725.09;;;21.27;100.00
23131;BME280;11734;51.046;13.778;2022-08-21T09:49:42;71794.97;;;21.27;100.00
23131;BME280;11734;51.046;13.778;2022-08-21T09:52:52;71760.31;;;21.29;100.00
23131;BME280;11734;51.046;13.778;2022-08-21T09:55:39;71796.03;;;21.41;100.00
23131;BME280;11734;51.046;13.778;2022-08-21T09:58:36;71821.94;;;21.52;100.00
23131;BME280;11734;51.046;13.778;2022-08-21T10:01:06;71829.72;;;21.49;100.00
23131;BME280;11734;51.046;13.778;2022-08-21T10:03:39;71865.38;;;21.75;100.00
23131;BME280;11734;51.046;13.778;2022-08-21T10:06:09;71818.53;;;21.65;100.00
23131;BME280;11734;51.046;13.778;2022-08-21T10:08:40;71778.75;;;21.40;100.00
23131;BME280;11734;51.046;13.778;2022-08-21T10:11:13;71755.84;;;21.28;100.00
23131;BME280;11734;51.046;13.778;2022-08-21T10:17:31;71803.88;;;21.34;100.00
23131;BME280;11734;51.046;13.778;2022-08-21T10:20:11;71785.38;;;21.32;100.00
23131;BME280;11734;51.046;13.778;2022-08-21T10:23:03;71764.78;;;21.31;100.00
23131;BME280;11734;51.046;13.778;2022-08-21T10:40:42;71876.28;;;21.96;100.00
23131;BME280;11734;51.046;13.778;2022-08-21T10:48:47;71927.50;;;22.17;99.63
23131;BME280;11734;51.046;13.778;2022-08-21T10:57:43;71947.69;;;22.34;100.00
23131;BME280;11734;51.046;13.778;2022-08-21T11:00:18;71916.75;;;22.17;98.37
23131;BME280;11734;51.046;13.778;2022-08-21T11:03:11;71938.19;;;22.26;94.89
23131;BME280;11734;51.046;13.778;2022-08-21T11:05:48;71959.00;;;22.43;92.43
23131;BME280;11734;51.046;13.778;2022-08-21T11:08:57;72033.03;;;22.61;93.28
23131;BME280;11734;51.046;13.778;2022-08-21T11:11:52;71957.19;;;22.42;90.55
23131;BME280;11734;51.046;13.778;2022-08-21T11:14:58;72034.28;;;22.57;86.68
23131;BME280;11734;51.046;13.778;2022-08-21T11:17:54;72090.34;;;22.86;91.17
23131;BME280;11734;51.046;13.778;2022-08-21T11:26:44;72242.25;;;23.97;84.94
23131;BME280;11734;51.046;13.778;2022-08-21T11:29:35;72299.22;;;24.34;81.71
23131;BME280;11734;51.046;13.778;2022-08-21T11:41:08;72604.84;;;25.71;74.93
23131;BME280;11734;51.046;13.778;2022-08-21T11:43:52;72628.00;;;26.05;70.90
23131;BME280;11734;51.046;13.778;2022-08-21T11:47:15;72604.19;;;26.10;64.98
23131;BME280;11734;51.046;13.778;2022-08-21T11:53:39;72681.16;;;26.20;59.94
23131;BME280;11734;51.046;13.778;2022-08-21T11:56:23;72650.19;;;26.19;59.20
23131;BME280;11734;51.046;13.778;2022-08-21T11:59:06;72841.75;;;26.94;61.18
23131;BME280;11734;51.046;13.778;2022-08-21T12:01:43;72862.28;;;26.88;57.10
23131;BME280;11734;51.046;13.778;2022-08-21T12:04:35;72820.09;;;26.85;49.72
23131;BME280;11734;51.046;13.778;2022-08-21T12:07:28;72867.00;;;27.01;48.97
23131;BME280;11734;51.046;13.778;2022-08-21T12:09:57;72839.81;;;27.06;44.44
23131;BME280;11734;51.046;13.778;2022-08-21T12:12:35;72730.50;;;26.59;49.21
23131;BME280;11734;51.046;13.778;2022-08-21T12:18:22;72645.69;;;26.13;50.08
23131;BME280;11734;51.046;13.778;2022-08-21T12:21:26;72622.66;;;25.96;52.21
23131;BME280;11734;51.046;13.778;2022-08-21T12:29:36;72561.75;;;25.78;51.88
23131;BME280;11734;51.046;13.778;2022-08-21T12:32:25;72564.13;;;25.80;50.48
23131;BME280;11734;51.046;13.778;2022-08-21T12:35:10;72536.22;;;25.73;51.25
23131;BME280;11734;51.046;13.778;2022-08-21T12:38:09;72596.88;;;25.88;49.77
23131;BME280;11734;51.046;13.778;2022-08-21T12:43:30;72568.75;;;25.68;49.50
23131;BME280;11734;51.046;13.778;2022-08-21T12:45:57;72509.09;;;25.48;48.81
23131;BME280;11734;51.046;13.778;2022-08-21T12:48:41;72414.13;;;25.11;51.94
23131;BME280;11734;51.046;13.778;2022-08-21T12:51:29;72479.28;;;25.18;53.43
23131;BME280;11734;51.046;13.778;2022-08-21T12:53:59;72429.84;;;25.01;50.72
23131;BME280;11734;51.046;13.778;2022-08-21T12:56:30;72371.66;;;24.59;52.26
23131;BME280;11734;51.046;13.778;2022-08-21T12:59:12;72424.50;;;24.97;53.24
23131;BME280;11734;51.046;13.778;2022-08-21T13:01:50;72353.16;;;24.77;52.06
23131;BME280;11734;51.046;13.778;2022-08-21T13:04:35;72327.16;;;24.62;50.51
23131;BME280;11734;51.046;13.778;2022-08-21T13:07:10;72358.34;;;24.36;51.35
23131;BME280;11734;51.046;13.778;2022-08-21T13:09:53;72414.75;;;24.77;51.86
23131;BME280;11734;51.046;13.778;2022-08-21T13:12:23;72278.53;;;24.32;49.72
23131;BME280;11734;51.046;13.778;2022-08-21T13:15:03;72337.47;;;24.53;53.29
23131;BME280;11734;51.046;13.778;2022-08-21T13:17:44;72315.31;;;24.48;53.14
23131;BME280;11734;51.046;13.778;2022-08-21T13:20:24;72334.78;;;24.53;51.86
23131;BME280;11734;51.046;13.778;2022-08-21T13:22:51;72294.50;;;24.25;54.83
23131;BME280;11734;51.046;13.778;2022-08-21T13:25:24;72311.06;;;24.19;56.45
23131;BME280;11734;51.046;13.778;2022-08-21T13:28:11;72227.31;;;23.89;57.05
23131;BME280;11734;51.046;13.778;2022-08-21T13:30:55;72153.47;;;23.65;56.89
23131;BME280;11734;51.046;13.778;2022-08-21T13:33:25;72073.94;;;23.14;58.96
23131;BME280;11734;51.046;13.778;2022-08-21T13:36:09;72113.16;;;23.47;62.16
23131;BME280;11734;51.046;13.778;2022-08-21T13:38:41;72106.66;;;23.37;60.80
23131;BME280;11734;51.046;13.778;2022-08-21T13:41:23;72186.22;;;23.88;60.87
23131;BME280;11734;51.046;13.778;2022-08-21T13:44:16;72192.00;;;23.82;57.28
23131;BME280;11734;51.046;13.778;2022-08-21T13:46:48;72133.81;;;23.53;59.67
23131;BME280;11734;51.046;13.778;2022-08-21T13:49:21;72168.06;;;23.75;57.73
23131;BME280;11734;51.046;13.778;2022-08-21T13:51:50;72149.03;;;23.59;58.57
23131;BME280;11734;51.046;13.778;2022-08-21T13:54:36;72132.59;;;23.52;60.54
23131;BME280;11734;51.046;13.778;2022-08-21T13:57:19;72115.97;;;23.68;59.36
23131;BME280;11734;51.046;13.778;2022-08-21T13:59:46;72275.22;;;23.59;58.42
23131;BME280;11734;51.046;13.778;2022-08-21T14:02:23;72162.94;;;23.78;58.33
23131;BME280;11734;51.046;13.778;2022-08-21T14:05:01;72220.13;;;23.87;58.86
23131;BME280;11734;51.046;13.778;2022-08-21T14:07:33;72201.38;;;24.04;55.71
23131;BME280;11734;51.046;13.778;2022-08-21T14:10:07;72244.41;;;24.22;57.63
23131;BME280;11734;51.046;13.778;2022-08-21T14:12:46;72234.25;;;24.18;56.90
23131;BME280;11734;51.046;13.778;2022-08-21T14:15:18;72262.38;;;24.28;57.50
23131;BME280;11734;51.046;13.778;2022-08-21T14:17:48;72251.06;;;24.48;58.47
23131;BME280;11734;51.046;13.778;2022-08-21T14:20:34;72270.09;;;24.34;57.22
23131;BME280;11734;51.046;13.778;2022-08-21T14:23:02;72267.22;;;24.23;54.27
23131;BME280;11734;51.046;13.778;2022-08-21T14:25:43;72188.97;;;24.14;54.54
23131;BME280;11734;51.046;13.778;2022-08-21T14:30:56;72260.69;;;24.17;54.76
23131;BME280;11734;51.046;13.778;2022-08-21T14:33:32;72219.97;;;24.06;55.34
23131;BME280;11734;51.046;13.778;2022-08-21T14:35:59;72223.31;;;24.02;57.17
23131;BME280;11734;51.046;13.778;2022-08-21T14:38:29;72258.41;;;24.02;54.07
23131;BME280;11734;51.046;13.778;2022-08-21T14:41:02;72258.06;;;24.04;55.89
23131;BME280;11734;51.046;13.778;2022-08-21T14:43:31;72177.75;;;23.65;55.92